• Join FlightAware (Why Join?)
  • Login
  • US Flag 
11:51AM EDT


 

Airport Tracker/Info


-or-


 

Live Flight TrackerFlight Track Log ✈ FAO832 ✈ 15-Mar-2014 ✈ KPIE - KTYS

Flight Track Log - Related Links

Times and Time Zones

All times are in EDT time to prevent confusion due to time zone crossing. See the FAO832 flight status page for this flight to view local times or setup timezone preferences in your user account.

Time Position Orientation Groundspeed Altitude Reporting Facility
EDT Latitude Longitude Course Direction KTS MPH feet Rate Location/Type
09:43AM 27.8833 -82.6833 344° North 163 188 900  Level Tampa TRACON
09:44AM 27.8667 -82.6833 180° South 169 194 1,600 1,500 Climbing Tampa TRACON
09:45AM 27.8167 -82.7000 196° South 250 288 3,000 600 Climbing Tampa TRACON
09:46AM 27.8000 -82.7667 254° West 284 327 2,900 780 Descending Tampa TRACON
09:47AM 27.8833 -82.8000 341° North 262 302 4,700 2,280 Climbing Tampa TRACON
09:49AM 28.4717 -82.8017 344° North  Level FlightAware Approximate
09:49AM 28.0519 -82.8267 352° North 295 339 10,300  Level Jacksonville Center
09:50AM 28.1500 -82.8383 354° North 320 368 12,100 2,160 Climbing Jacksonville Center
09:51AM 28.2522 -82.8525 353° North 352 405 14,700 2,400 Climbing Jacksonville Center
09:52AM 28.3606 -82.8667 353° North 374 430 16,900 2,160 Climbing Jacksonville Center
09:53AM 28.4692 -82.8831 352° North 385 443 19,100 1,980 Climbing Jacksonville Center
09:54AM 28.5778 -82.8997 352° North 390 449 20,900 1,620 Climbing Jacksonville Center
09:55AM 28.6694 -82.9114 354° North 397 457 22,400 1,500 Climbing Jacksonville Center
09:56AM 28.8053 -82.9328 352° North 404 465 24,000 1,500 Climbing Jacksonville Center
09:57AM 28.9242 -82.9494 353° North 417 480 25,400 1,620 Climbing Jacksonville Center
09:58AM 29.0431 -82.9661 353° North 427 491 27,300 1,680 Climbing Jacksonville Center
09:59AM 29.1581 -82.9947 348° North 427 491 28,800 1,740 Climbing Jacksonville Center
10:00AM 29.2622 -83.0378 340° North 408 470 30,800 1,500 Climbing Jacksonville Center
10:01AM 29.3667 -83.0783 341° North 395 455 31,800 600 Climbing Jacksonville Center
10:02AM 29.4689 -83.1217 340° North 395 455 32,000 60 Climbing Jacksonville Center
10:03AM 29.5689 -83.1600 342° North 406 467 32,000  Level Jacksonville Center
10:04AM 29.6794 -83.2058 340° North 411 473 32,000  Level Jacksonville Center
10:05AM 29.7881 -83.2467 342° North 411 473 32,000  Level Jacksonville Center
10:06AM 29.9047 -83.2950 340° North 406 467 32,000  Level Jacksonville Center
10:07AM 30.0131 -83.3386 341° North 406 467 32,000  Level Jacksonville Center
10:08AM 30.1172 -83.3800 341° North 406 467 32,000  Level Jacksonville Center
10:09AM 30.2258 -83.4239 341° North 406 467 32,000  Level Jacksonville Center
10:10AM 30.3342 -83.4653 342° North 406 467 32,000  Level Jacksonville Center
10:11AM 30.4444 -83.5117 340° North 406 467 32,000  Level Jacksonville Center
10:12AM 30.5531 -83.5558 341° North 406 467 32,000  Level Jacksonville Center
10:13AM 30.6614 -83.6003 341° North 406 467 32,000  Level Jacksonville Center
10:14AM 30.7694 -83.6469 340° North 406 467 32,000  Level Jacksonville Center
10:15AM 30.8758 -83.6914 340° North 406 467 32,000  Level Jacksonville Center
10:16AM 30.9842 -83.7333 342° North 406 467 32,000  Level Jacksonville Center
10:17AM 31.0903 -83.7806 339° North 411 473 32,000  Level Jacksonville Center
10:18AM 31.2006 -83.8228 342° North 411 473 32,000  Level Jacksonville Center
10:20AM 31.4000 -83.9100 340° North 404 465 32,000  Level Atlanta Center
10:21AM 31.5067 -83.9536 341° North 409 471 32,000  Level Atlanta Center
10:22AM 31.6214 -83.9828 348° North 409 471 32,000  Level Atlanta Center
10:23AM 31.7342 -84.0072 350° North 409 471 32,000  Level Atlanta Center
10:24AM 31.8489 -84.0317 350° North 414 476 32,000  Level Atlanta Center
10:25AM 31.9617 -84.0558 350° North 414 476 32,000  Level Atlanta Center
10:26AM 32.0742 -84.0831 348° North 414 476 32,000  Level Atlanta Center
10:27AM 32.1850 -84.1075 349° North 408 470 32,000  Level Atlanta Center
10:28AM 32.2975 -84.1322 349° North 408 470 32,000  Level Atlanta Center
10:30AM 32.5208 -84.1842 349° North 413 475 32,000  Level Atlanta Center
10:31AM 32.6211 -84.2067 349° North 413 475 32,000  Level Atlanta Center
10:32AM 32.7317 -84.2314 349° North 413 475 32,000  Level Atlanta Center
10:33AM 32.8528 -84.2639 347° North 413 475 32,000  Level Atlanta Center
10:34AM 32.9633 -84.2889 349° North 413 475 32,000 -360 Level Atlanta Center
10:35AM 33.0739 -84.3139 349° North 408 470 31,300 -720 Descending Atlanta Center
10:36AM 33.1844 -84.3392 349° North 403 464 30,600 -660 Descending Atlanta Center
10:37AM 33.2969 -84.3644 349° North 408 470 30,000 -300 Descending Atlanta Center
10:38AM 33.3950 -84.3872 349° North 408 470 30,000  Level Atlanta Center
10:39AM 33.5078 -84.4125 349° North 413 475 30,000  Level Atlanta Center
10:40AM 33.6328 -84.4306 353° North 407 468 30,000  Level Atlanta Center
10:41AM 33.7289 -84.4158 North 415 478 30,000 -300 Level Atlanta Center
10:42AM 33.8814 -84.3867 North 430 495 29,400 -600 Descending Atlanta Center
10:43AM 33.9983 -84.3644 North 435 501 28,800 -660 Descending Atlanta Center
10:44AM 34.1258 -84.3400 North 440 506 28,100 -720 Descending Atlanta Center
10:45AM 34.2428 -84.3153 10° North 464 534 27,400 -720 Descending Atlanta Center
10:46AM 34.3658 -84.2881 10° North 464 534 26,700 -720 Descending Atlanta Center
10:47AM 34.4911 -84.2631 North 459 528 26,000 -720 Descending Atlanta Center
10:48AM 34.6039 -84.2406 North 429 494 25,300 -1,380 Descending Atlanta Center
10:49AM 34.7186 -84.2183 North 409 471 23,300 -2,100 Descending Atlanta Center
10:50AM 34.8272 -84.1983 North 409 471 21,200 -2,100 Descending Atlanta Center
10:51AM 34.9378 -84.1756 10° North 404 465 19,200 -2,040 Descending Atlanta Center
10:52AM 35.0422 -84.1556 North 399 459 17,200 -2,040 Descending Atlanta Center
10:53AM 35.1444 -84.1353 North 385 443 15,200 -2,100 Descending Atlanta Center
10:54AM 35.2425 -84.1150 10° North 368 423 13,100 -1,980 Descending Atlanta Center
10:55AM 35.3386 -84.0947 10° North 356 410 11,300 -1,080 Descending Atlanta Center
10:56AM 35.4219 -84.0822 North 331 381 11,000 -180 Descending Atlanta Center
10:57AM 35.4972 -84.0975 351° North 291 335 11,000 -120 Level Atlanta Center
10:58AM 35.5742 -84.1000 358° North 272 313 10,800 -960 Descending Atlanta Center
10:59AM 35.6286 -84.0311 46° Northeast 251 289 9,100 -1,800 Descending Atlanta Center
11:00AM 35.6828 -83.9619 46° Northeast 256 295 7,200 -1,620 Descending Atlanta Center
11:01AM 35.7350 -83.8903 48° Northeast 263 303 5,900 -780 Descending Atlanta Center
11:02AM 35.7806 -83.8314 46° Northeast 258 297 5,700 -420 Descending Atlanta Center
11:03AM 35.8222 -83.7956 35° Northeast 217 250 5,100 -840 Descending Atlanta Center
11:04AM 35.8600 -83.8414 315° West 143 165 4,100 -1,020 Descending Atlanta Center
11:06AM 35.8000 -83.9833 219° Southwest  Level FlightAware Approximate
11:13AM 35.8110 -83.9940 219° Southwest  Level Estimated
11:14AM 35.8110 -83.9940 219° Southwest  Level Estimated
11:15AM 35.8110 -83.9940 219° Southwest  Level Estimated